createdAt,value
2023-05-25T00:00:26.869Z,100879.75
2023-05-25T00:01:02.749Z,100875.47
2023-05-25T00:01:35.254Z,100880.69
2023-05-25T00:02:06.924Z,100876.31
2023-05-25T00:02:39.132Z,100872.81
2023-05-25T00:03:11.037Z,100871.97
2023-05-25T00:03:42.753Z,100877.38
2023-05-25T00:04:14.570Z,100875.66
2023-05-25T00:04:46.425Z,100877.38
2023-05-25T00:05:18.083Z,100879.16
2023-05-25T00:05:49.698Z,100876.41
2023-05-25T00:06:21.648Z,100879.06
2023-05-25T00:06:53.419Z,100879.94
2023-05-25T00:07:25.060Z,100888.75
2023-05-25T00:07:56.756Z,100879.94
2023-05-25T00:08:28.823Z,100881.81
2023-05-25T00:09:00.443Z,100882.78
2023-05-25T00:09:32.081Z,100880.97
2023-05-25T00:10:06.590Z,100886.28
2023-05-25T00:10:38.186Z,100883.63
2023-05-25T00:11:09.829Z,100881.91
2023-05-25T00:11:41.404Z,100882.78
2023-05-25T00:12:13.593Z,100885.44
2023-05-25T00:12:45.275Z,100879.25
2023-05-25T00:13:17.006Z,100880.97
2023-05-25T00:13:48.870Z,100882.78
2023-05-25T00:14:20.490Z,100878.41
2023-05-25T00:14:52.108Z,100877.59
2023-05-25T00:15:23.798Z,100877.59
2023-05-25T00:15:55.426Z,100873.97
2023-05-25T00:16:27.152Z,100885.53
2023-05-25T00:16:58.744Z,100885.53
2023-05-25T00:17:30.423Z,100884.56
2023-05-25T00:18:02.142Z,100882.00
2023-05-25T00:18:34.119Z,100875.88
2023-05-25T00:19:05.772Z,100888.19
2023-05-25T00:19:37.841Z,100889.13
2023-05-25T00:20:09.776Z,100887.31
2023-05-25T00:20:41.586Z,100887.31
2023-05-25T00:21:13.864Z,100881.16
2023-05-25T00:21:45.560Z,100884.75
2023-05-25T00:22:17.162Z,100889.22
2023-05-25T00:22:48.744Z,100883.00
2023-05-25T00:23:20.486Z,100882.88
2023-05-25T00:23:52.163Z,100885.53
2023-05-25T00:24:23.790Z,100882.78
2023-05-25T00:24:55.397Z,100890.75
2023-05-25T00:25:27.049Z,100882.88
2023-05-25T00:25:58.668Z,100880.13
2023-05-25T00:26:30.336Z,100876.59
2023-05-25T00:27:01.933Z,100882.00
2023-05-25T00:27:33.619Z,100879.25
2023-05-25T00:28:05.258Z,100885.44
2023-05-25T00:28:36.912Z,100877.47
2023-05-25T00:29:08.510Z,100883.63
2023-05-25T00:29:40.152Z,100881.91
2023-05-25T00:30:11.998Z,100878.41
2023-05-25T00:30:43.617Z,100878.53
2023-05-25T00:31:15.545Z,100882.00
2023-05-25T00:31:47.197Z,100882.88
2023-05-25T00:32:18.795Z,100884.56
2023-05-25T00:32:50.413Z,100882.69
2023-05-25T00:33:22.135Z,100881.91
2023-05-25T00:33:53.857Z,100880.97
2023-05-25T00:34:25.457Z,100882.78
2023-05-25T00:34:57.089Z,100877.47
2023-05-25T00:35:28.756Z,100882.78
2023-05-25T00:36:00.339Z,100877.59
2023-05-25T00:36:31.899Z,100880.13
2023-05-25T00:37:03.501Z,100873.00
2023-05-25T00:37:35.100Z,100872.06
2023-05-25T00:38:06.699Z,100879.06
2023-05-25T00:38:38.452Z,100878.22
2023-05-25T00:39:10.102Z,100879.06
2023-05-25T00:39:41.917Z,100880.78
2023-05-25T00:40:14.586Z,100872.06
2023-05-25T00:40:46.222Z,100875.47
2023-05-25T00:41:17.964Z,100876.31
2023-05-25T00:41:49.702Z,100878.22
2023-05-25T00:42:21.389Z,100873.84
2023-05-25T00:42:53.139Z,100874.72
2023-05-25T00:43:24.755Z,100876.41
2023-05-25T00:43:56.356Z,100874.72
2023-05-25T00:44:27.984Z,100870.38
2023-05-25T00:44:59.573Z,100873.75
2023-05-25T00:45:31.135Z,100879.06
2023-05-25T00:46:02.997Z,100872.06
2023-05-25T00:46:38.203Z,100871.97
2023-05-25T00:47:10.379Z,100874.63
2023-05-25T00:47:42.267Z,100869.31
2023-05-25T00:48:13.894Z,100878.03
2023-05-25T00:48:45.521Z,100873.75
2023-05-25T00:49:17.956Z,100872.06
2023-05-25T00:49:49.558Z,100865.91
2023-05-25T00:50:23.160Z,100874.72
2023-05-25T00:50:55.159Z,100866.66
2023-05-25T00:51:26.866Z,100869.31
2023-05-25T00:51:58.565Z,100868.44
2023-05-25T00:52:30.363Z,100866.78
2023-05-25T00:53:02.054Z,100870.38
2023-05-25T00:53:33.663Z,100869.44
2023-05-25T00:54:05.377Z,100865.81
2023-05-25T00:54:36.984Z,100868.44
2023-05-25T00:55:09.005Z,100869.31
2023-05-25T00:55:50.454Z,100872.91
2023-05-25T00:56:22.538Z,100871.09
2023-05-25T00:56:57.709Z,100869.31
2023-05-25T00:57:30.002Z,100879.06
2023-05-25T00:58:01.581Z,100875.56
2023-05-25T00:58:33.630Z,100879.94
2023-05-25T00:59:06.335Z,100865.91
2023-05-25T00:59:42.271Z,100871.97
2023-05-25T01:00:14.279Z,100869.44
2023-05-25T01:00:45.910Z,100866.78
2023-05-25T01:01:17.776Z,100870.38
2023-05-25T01:01:49.560Z,100869.44
2023-05-25T01:02:21.265Z,100867.59
2023-05-25T01:02:53.090Z,100865.91
2023-05-25T01:03:25.059Z,100872.91
2023-05-25T01:03:56.780Z,100872.06
2023-05-25T01:04:28.379Z,100864.13
2023-05-25T01:05:00.363Z,100871.97
2023-05-25T01:05:32.047Z,100872.91
2023-05-25T01:06:04.508Z,100868.56
2023-05-25T01:06:36.502Z,100868.44
2023-05-25T01:07:08.558Z,100867.59
2023-05-25T01:07:40.173Z,100872.06
2023-05-25T01:08:11.793Z,100869.44
2023-05-25T01:08:47.244Z,100866.66
2023-05-25T01:09:19.344Z,100866.78
2023-05-25T01:09:54.083Z,100861.47
2023-05-25T01:10:25.682Z,100872.06
2023-05-25T01:10:57.360Z,100866.78
2023-05-25T01:11:31.839Z,100869.44
2023-05-25T01:12:03.565Z,100865.06
2023-05-25T01:12:35.624Z,100867.72
2023-05-25T01:13:07.397Z,100871.09
2023-05-25T01:13:39.035Z,100864.97
2023-05-25T01:14:10.643Z,100875.47
2023-05-25T01:14:42.339Z,100871.31
2023-05-25T01:15:13.937Z,100872.06
2023-05-25T01:15:46.192Z,100867.72
2023-05-25T01:16:17.880Z,100869.53
2023-05-25T01:16:49.573Z,100871.31
2023-05-25T01:17:21.406Z,100866.00
2023-05-25T01:17:53.065Z,100870.38
2023-05-25T01:18:24.745Z,100862.41
2023-05-25T01:18:56.447Z,100869.44
2023-05-25T01:19:27.994Z,100870.38
2023-05-25T01:20:09.686Z,100868.66
2023-05-25T01:20:57.015Z,100863.25
2023-05-25T01:21:47.182Z,100869.44
2023-05-25T01:22:22.484Z,100865.06
2023-05-25T01:23:02.660Z,100861.56
2023-05-25T01:23:34.898Z,100868.66
2023-05-25T01:24:19.402Z,100870.47
2023-05-25T01:24:55.134Z,100869.63
2023-05-25T01:25:39.797Z,100867.81
2023-05-25T01:26:12.021Z,100863.34
2023-05-25T01:26:47.067Z,100866.97
2023-05-25T01:27:25.883Z,100866.09
2023-05-25T01:27:58.815Z,100870.47
2023-05-25T01:28:31.089Z,100874.94
2023-05-25T01:29:02.832Z,100873.13
2023-05-25T01:29:34.565Z,100868.75
2023-05-25T01:30:06.854Z,100868.66
2023-05-25T01:30:38.485Z,100872.28
2023-05-25T01:31:10.050Z,100869.53
2023-05-25T01:31:41.702Z,100875.66
2023-05-25T01:32:13.905Z,100868.66
2023-05-25T01:32:45.783Z,100871.41
2023-05-25T01:33:20.523Z,100878.41
2023-05-25T01:33:52.339Z,100877.59
2023-05-25T01:34:23.951Z,100874.94
2023-05-25T01:34:55.797Z,100882.13
2023-05-25T01:35:27.399Z,100877.59
2023-05-25T01:35:59.176Z,100871.41
2023-05-25T01:36:30.869Z,100874.16
2023-05-25T01:37:02.534Z,100874.06
2023-05-25T01:37:35.391Z,100868.84
2023-05-25T01:38:07.033Z,100873.22
2023-05-25T01:38:38.596Z,100868.84
2023-05-25T01:39:10.279Z,100869.81
2023-05-25T01:39:41.909Z,100873.41
2023-05-25T01:40:14.111Z,100876.06
2023-05-25T01:40:45.784Z,100874.38
2023-05-25T01:41:17.578Z,100882.22
2023-05-25T01:41:49.223Z,100875.13
2023-05-25T01:42:20.876Z,100876.06
2023-05-25T01:42:52.522Z,100871.72
2023-05-25T01:43:24.092Z,100876.06
2023-05-25T01:43:55.739Z,100876.06
2023-05-25T01:44:27.405Z,100871.72
2023-05-25T01:44:59.115Z,100881.38
2023-05-25T01:45:30.742Z,100884.03
2023-05-25T01:46:13.188Z,100881.38
2023-05-25T01:46:44.793Z,100880.53
2023-05-25T01:47:24.004Z,100879.69
2023-05-25T01:47:55.709Z,100878.81
2023-05-25T01:48:31.129Z,100882.34
2023-05-25T01:49:07.678Z,100879.69
2023-05-25T01:50:08.428Z,100879.69
2023-05-25T01:50:45.827Z,100876.06
2023-05-25T01:51:19.461Z,100879.56
2023-05-25T01:51:50.993Z,100885.00
2023-05-25T01:52:22.735Z,100882.44
2023-05-25T01:52:56.368Z,100877.97
2023-05-25T01:53:37.951Z,100886.22
2023-05-25T01:54:12.433Z,100874.66
2023-05-25T01:54:45.049Z,100883.56
2023-05-25T01:55:17.118Z,100877.31
2023-05-25T01:56:02.444Z,100878.16
2023-05-25T01:56:34.065Z,100875.50
2023-05-25T01:57:06.928Z,100884.31
2023-05-25T01:57:38.842Z,100878.16
2023-05-25T01:58:10.533Z,100872.84
2023-05-25T01:58:42.754Z,100876.44
2023-05-25T01:59:15.108Z,100876.34
2023-05-25T01:59:47.082Z,100872.09
2023-05-25T02:00:18.889Z,100876.44
2023-05-25T02:00:50.857Z,100870.19
2023-05-25T02:01:22.518Z,100880.81
2023-05-25T02:01:54.185Z,100883.47
2023-05-25T02:02:25.848Z,100870.94
2023-05-25T02:02:57.545Z,100874.47
2023-05-25T02:03:29.162Z,100874.56
2023-05-25T02:04:00.847Z,100869.25
2023-05-25T02:04:32.576Z,100864.78
2023-05-25T02:05:04.380Z,100870.94
2023-05-25T02:05:36.125Z,100863.84
2023-05-25T02:06:07.962Z,100868.38
2023-05-25T02:06:39.519Z,100868.38
2023-05-25T02:07:11.113Z,100863.94
2023-05-25T02:07:42.717Z,100864.78
2023-05-25T02:08:14.345Z,100864.78
2023-05-25T02:08:46.063Z,100866.50
2023-05-25T02:09:17.688Z,100864.91
2023-05-25T02:09:49.266Z,100860.44
2023-05-25T02:10:20.909Z,100869.25
2023-05-25T02:10:52.570Z,100863.94
2023-05-25T02:11:24.144Z,100865.63
2023-05-25T02:11:55.765Z,100872.84
2023-05-25T02:12:27.422Z,100864.78
2023-05-25T02:12:59.048Z,100878.06
2023-05-25T02:13:30.722Z,100869.25
2023-05-25T02:14:02.436Z,100866.59
2023-05-25T02:14:33.922Z,100859.69
2023-05-25T02:15:05.697Z,100871.13
2023-05-25T02:15:37.609Z,100873.78
2023-05-25T02:16:09.274Z,100870.41
2023-05-25T02:16:40.912Z,100866.81
2023-05-25T02:17:12.590Z,100869.47
2023-05-25T02:17:44.239Z,100871.13
2023-05-25T02:18:15.874Z,100872.00
2023-05-25T02:18:47.593Z,100870.19
2023-05-25T02:19:19.228Z,100874.66
2023-05-25T02:19:50.916Z,100874.56
2023-05-25T02:20:22.725Z,100877.22
2023-05-25T02:20:54.538Z,100876.25
2023-05-25T02:21:26.226Z,100870.94
2023-05-25T02:21:57.908Z,100861.31
2023-05-25T02:22:29.517Z,100871.91
2023-05-25T02:23:01.162Z,100873.69
2023-05-25T02:23:32.760Z,100869.34
2023-05-25T02:24:04.438Z,100873.78
2023-05-25T02:24:36.116Z,100872.94
2023-05-25T02:25:08.029Z,100874.66
2023-05-25T02:25:39.566Z,100872.00
2023-05-25T02:26:11.186Z,100878.16
2023-05-25T02:26:42.927Z,100881.66
2023-05-25T02:27:14.797Z,100871.91
2023-05-25T02:27:46.472Z,100867.53
2023-05-25T02:28:18.149Z,100876.25
2023-05-25T02:28:51.362Z,100878.16
2023-05-25T02:29:22.963Z,100872.84
2023-05-25T02:29:54.576Z,100883.47
2023-05-25T02:30:26.165Z,100878.34
2023-05-25T02:30:57.869Z,100875.69
2023-05-25T02:31:29.588Z,100873.13
2023-05-25T02:32:01.362Z,100876.63
2023-05-25T02:32:33.005Z,100871.34
2023-05-25T02:33:04.717Z,100880.06
2023-05-25T02:33:36.412Z,100874.75
2023-05-25T02:34:08.009Z,100881.00
2023-05-25T02:34:39.641Z,100873.88
2023-05-25T02:35:11.294Z,100879.97
2023-05-25T02:35:43.392Z,100880.06
2023-05-25T02:36:15.170Z,100883.56
2023-05-25T02:36:46.823Z,100883.56
2023-05-25T02:37:18.614Z,100879.19
2023-05-25T02:37:51.205Z,100883.66
2023-05-25T02:38:23.107Z,100890.88
2023-05-25T02:38:54.722Z,100883.84
2023-05-25T02:39:26.326Z,100882.91
2023-05-25T02:39:58.016Z,100882.91
2023-05-25T02:40:29.687Z,100880.25
2023-05-25T02:41:01.318Z,100874.97
2023-05-25T02:41:32.965Z,100879.28
2023-05-25T02:42:04.628Z,100884.59
2023-05-25T02:42:36.326Z,100876.88
2023-05-25T02:43:08.047Z,100880.34
2023-05-25T02:43:39.944Z,100879.63
2023-05-25T02:44:11.528Z,100886.59
2023-05-25T02:44:43.184Z,100881.38
2023-05-25T02:45:14.891Z,100876.97
2023-05-25T02:45:46.543Z,100882.16
2023-05-25T02:46:18.257Z,100877.78
2023-05-25T02:46:49.933Z,100883.00
2023-05-25T02:47:21.738Z,100878.53
2023-05-25T02:47:53.634Z,100877.72
2023-05-25T02:48:25.316Z,100884.72
2023-05-25T02:48:58.172Z,100876.00
2023-05-25T02:49:29.817Z,100884.03
2023-05-25T02:50:01.673Z,100878.53
2023-05-25T02:50:33.530Z,100882.16
2023-05-25T02:51:05.175Z,100878.53
2023-05-25T02:51:36.776Z,100887.47
2023-05-25T02:52:08.404Z,100882.16
2023-05-25T02:52:43.043Z,100876.88
2023-05-25T02:53:14.760Z,100882.06
2023-05-25T02:53:46.408Z,100889.91
2023-05-25T02:54:18.018Z,100882.16
2023-05-25T02:54:49.725Z,100887.47
2023-05-25T02:55:21.290Z,100881.28
2023-05-25T02:55:52.872Z,100890.97
2023-05-25T02:56:24.451Z,100889.16
2023-05-25T02:56:56.053Z,100891.91
2023-05-25T02:57:27.668Z,100891.06
2023-05-25T02:57:59.308Z,100890.22
2023-05-25T02:58:31.138Z,100883.00
2023-05-25T02:59:02.842Z,100891.81
2023-05-25T02:59:34.541Z,100890.03
2023-05-25T03:00:06.604Z,100895.34
2023-05-25T03:00:38.281Z,100890.13
2023-05-25T03:01:09.958Z,100898.00
2023-05-25T03:01:41.634Z,100890.97
2023-05-25T03:02:13.305Z,100892.78
2023-05-25T03:02:44.967Z,100897.22
2023-05-25T03:03:16.524Z,100895.63
2023-05-25T03:03:48.228Z,100892.97
2023-05-25T03:04:19.797Z,100891.16
2023-05-25T03:04:51.566Z,100888.59
2023-05-25T03:05:23.291Z,100889.34
2023-05-25T03:05:55.109Z,100894.66
2023-05-25T03:06:26.689Z,100896.38
2023-05-25T03:06:58.410Z,100898.28
2023-05-25T03:07:30.029Z,100894.66
2023-05-25T03:08:01.720Z,100890.31
2023-05-25T03:08:33.362Z,100889.34
2023-05-25T03:09:05.245Z,100891.16
2023-05-25T03:09:36.847Z,100895.53
2023-05-25T03:10:08.844Z,100894.66
2023-05-25T03:10:40.460Z,100892.09
2023-05-25T03:11:12.106Z,100894.66
2023-05-25T03:11:43.738Z,100897.22
2023-05-25T03:12:15.350Z,100900.84
2023-05-25T03:12:47.060Z,100906.88
2023-05-25T03:13:18.763Z,100900.75
2023-05-25T03:13:50.523Z,100906.03
2023-05-25T03:14:22.148Z,100905.28
2023-05-25T03:14:53.832Z,100906.25
2023-05-25T03:15:25.465Z,100903.59
2023-05-25T03:15:57.081Z,100905.47
2023-05-25T03:16:28.745Z,100904.63
2023-05-25T03:17:00.544Z,100906.44
2023-05-25T03:17:32.303Z,100909.00
2023-05-25T03:18:04.111Z,100903.69
2023-05-25T03:18:36.045Z,100909.00
2023-05-25T03:19:07.666Z,100902.81
2023-05-25T03:19:39.240Z,100910.84
2023-05-25T03:20:11.175Z,100906.44
2023-05-25T03:20:42.802Z,100905.56
2023-05-25T03:21:14.451Z,100910.75
2023-05-25T03:21:46.521Z,100907.38
2023-05-25T03:22:18.146Z,100913.63
2023-05-25T03:22:49.832Z,100911.81
2023-05-25T03:23:21.418Z,100909.19
2023-05-25T03:23:53.031Z,100911.00
2023-05-25T03:24:24.693Z,100911.94
2023-05-25T03:24:56.308Z,100906.63
2023-05-25T03:25:27.916Z,100903.97
2023-05-25T03:25:59.768Z,100906.72
2023-05-25T03:26:31.455Z,100906.81
2023-05-25T03:27:03.092Z,100908.53
2023-05-25T03:27:34.862Z,100907.56
2023-05-25T03:28:06.504Z,100903.03
2023-05-25T03:28:38.226Z,100912.66
2023-05-25T03:29:09.788Z,100908.22
2023-05-25T03:29:41.436Z,100911.72
2023-05-25T03:30:13.263Z,100908.22
2023-05-25T03:30:44.809Z,100906.44
2023-05-25T03:31:16.431Z,100916.06
2023-05-25T03:31:48.050Z,100912.66
2023-05-25T03:32:19.889Z,100925.84
2023-05-25T03:32:51.495Z,100922.44
2023-05-25T03:33:23.141Z,100916.06
2023-05-25T03:33:54.739Z,100919.69
2023-05-25T03:34:26.317Z,100918.81
2023-05-25T03:34:57.976Z,100926.91
2023-05-25T03:35:29.586Z,100919.78
2023-05-25T03:36:01.223Z,100925.94
2023-05-25T03:36:32.831Z,100919.69
2023-05-25T03:37:04.481Z,100926.78
2023-05-25T03:37:36.018Z,100920.53
2023-05-25T03:38:08.145Z,100918.81
2023-05-25T03:38:39.713Z,100915.31
2023-05-25T03:39:11.679Z,100922.44
2023-05-25T03:39:43.262Z,100921.59
2023-05-25T03:40:14.930Z,100923.28
2023-05-25T03:40:46.552Z,100923.38
2023-05-25T03:41:18.219Z,100918.94
2023-05-25T03:41:49.829Z,100918.81
2023-05-25T03:42:21.380Z,100915.31
2023-05-25T03:42:52.926Z,100915.31
2023-05-25T03:43:24.548Z,100915.22
2023-05-25T03:43:56.091Z,100925.84
2023-05-25T03:44:27.702Z,100921.47
2023-05-25T03:44:59.354Z,100917.97
2023-05-25T03:45:30.960Z,100921.69
2023-05-25T03:46:02.670Z,100924.34
2023-05-25T03:46:34.348Z,100923.47
2023-05-25T03:47:05.958Z,100928.78
2023-05-25T03:47:37.688Z,100928.03
2023-05-25T03:48:09.332Z,100922.72
2023-05-25T03:48:40.994Z,100926.22
2023-05-25T03:49:12.557Z,100925.19
2023-05-25T03:49:44.154Z,100921.59
2023-05-25T03:50:15.754Z,100922.44
2023-05-25T03:50:47.352Z,100915.41
2023-05-25T03:51:18.965Z,100915.50
2023-05-25T03:51:50.552Z,100924.44
2023-05-25T03:52:22.123Z,100918.16
2023-05-25T03:52:53.857Z,100918.16
2023-05-25T03:53:25.767Z,100927.00
2023-05-25T03:53:57.390Z,100920.81
2023-05-25T03:54:29.062Z,100919.03
2023-05-25T03:55:00.617Z,100920.72
2023-05-25T03:55:32.311Z,100924.34
2023-05-25T03:56:03.963Z,100919.88
2023-05-25T03:56:35.570Z,100918.16
2023-05-25T03:57:07.154Z,100919.03
2023-05-25T03:57:38.785Z,100919.03
2023-05-25T03:58:10.378Z,100924.34
2023-05-25T03:58:41.974Z,100916.47
2023-05-25T03:59:13.600Z,100921.78
2023-05-25T03:59:45.333Z,100911.94
2023-05-25T04:00:17.176Z,100912.78
2023-05-25T04:00:48.813Z,100919.88
2023-05-25T04:01:20.386Z,100911.00
2023-05-25T04:01:52.134Z,100925.19
2023-05-25T04:02:23.733Z,100921.69
2023-05-25T04:02:55.501Z,100916.28
2023-05-25T04:03:27.380Z,100916.28
2023-05-25T04:03:59.167Z,100926.91
2023-05-25T04:04:30.808Z,100919.88
2023-05-25T04:05:02.462Z,100921.78
2023-05-25T04:05:34.003Z,100917.41
2023-05-25T04:06:05.612Z,100923.47
2023-05-25T04:06:37.397Z,100923.47
2023-05-25T04:07:09.036Z,100921.78
2023-05-25T04:07:40.594Z,100922.72
2023-05-25T04:08:13.628Z,100924.63
2023-05-25T04:08:45.738Z,100921.97
2023-05-25T04:09:17.616Z,100921.97
2023-05-25T04:09:49.182Z,100922.81
2023-05-25T04:10:20.747Z,100923.66
2023-05-25T04:10:52.420Z,100927.28
2023-05-25T04:11:24.024Z,100923.66
2023-05-25T04:11:55.742Z,100929.94
2023-05-25T04:12:27.395Z,100926.41
2023-05-25T04:12:58.992Z,100927.38
2023-05-25T04:13:30.638Z,100930.88
2023-05-25T04:14:02.297Z,100935.34
2023-05-25T04:14:33.904Z,100933.53
2023-05-25T04:15:05.968Z,100937.88
2023-05-25T04:15:37.556Z,100938.81
2023-05-25T04:16:09.812Z,100940.53
2023-05-25T04:16:41.744Z,100937.88
2023-05-25T04:17:13.524Z,100944.03
2023-05-25T04:17:45.257Z,100940.53
2023-05-25T04:18:16.873Z,100941.47
2023-05-25T04:18:48.514Z,100942.41
2023-05-25T04:19:20.256Z,100945.94
2023-05-25T04:19:52.209Z,100940.72
2023-05-25T04:20:23.914Z,100938.06
2023-05-25T04:20:55.634Z,100941.47
2023-05-25T04:21:27.320Z,100942.41
2023-05-25T04:21:58.903Z,100943.28
2023-05-25T04:22:30.547Z,100944.13
2023-05-25T04:23:02.238Z,100942.31
2023-05-25T04:23:33.819Z,100947.72
2023-05-25T04:24:05.586Z,100947.63
2023-05-25T04:24:37.207Z,100942.31
2023-05-25T04:25:09.002Z,100948.50
2023-05-25T04:25:40.853Z,100947.63
2023-05-25T04:26:12.578Z,100945.94
2023-05-25T04:26:44.255Z,100942.41
2023-05-25T04:27:15.962Z,100944.22
2023-05-25T04:27:47.581Z,100941.56
2023-05-25T04:28:19.165Z,100951.25
2023-05-25T04:28:50.739Z,100945.06
2023-05-25T04:29:22.289Z,100949.63
2023-05-25T04:29:53.927Z,100942.53
2023-05-25T04:30:25.471Z,100950.38
2023-05-25T04:30:57.405Z,100947.84
2023-05-25T04:31:29.297Z,100948.69
2023-05-25T04:32:01.107Z,100951.25
2023-05-25T04:32:32.859Z,100955.69
2023-05-25T04:33:04.691Z,100954.00
2023-05-25T04:33:36.310Z,100947.72
2023-05-25T04:34:08.000Z,100953.03
2023-05-25T04:34:39.603Z,100945.19
2023-05-25T04:35:11.377Z,100951.25
2023-05-25T04:35:43.278Z,100950.38
2023-05-25T04:36:14.947Z,100953.16
2023-05-25T04:36:46.515Z,100959.31
2023-05-25T04:37:18.137Z,100955.69
2023-05-25T04:37:49.712Z,100951.34
2023-05-25T04:38:21.404Z,100955.69
2023-05-25T04:38:52.995Z,100953.16
2023-05-25T04:39:24.574Z,100950.38
2023-05-25T04:39:56.171Z,100959.31
2023-05-25T04:40:27.770Z,100961.09
2023-05-25T04:40:59.568Z,100957.59
2023-05-25T04:41:31.149Z,100957.59
2023-05-25T04:42:02.801Z,100954.94
2023-05-25T04:42:34.461Z,100956.66
2023-05-25T04:43:06.051Z,100964.59
2023-05-25T04:43:37.725Z,100969.91
2023-05-25T04:44:10.809Z,100972.56
2023-05-25T04:44:42.466Z,100972.56
2023-05-25T04:45:14.080Z,100966.28
2023-05-25T04:45:46.403Z,100973.50
2023-05-25T04:46:18.134Z,100969.91
2023-05-25T04:46:49.867Z,100969.06
2023-05-25T04:47:22.003Z,100967.25
2023-05-25T04:47:53.809Z,100969.06
2023-05-25T04:48:25.741Z,100977.13
2023-05-25T04:48:57.691Z,100962.88
2023-05-25T04:49:29.294Z,100966.50
2023-05-25T04:50:00.892Z,100962.88
2023-05-25T04:50:32.462Z,100962.03
2023-05-25T04:51:04.107Z,100969.06
2023-05-25T04:51:35.925Z,100962.03
2023-05-25T04:52:07.705Z,100971.81
2023-05-25T04:52:39.874Z,100966.50
2023-05-25T04:53:11.440Z,100963.84
2023-05-25T04:53:43.108Z,100965.63
2023-05-25T04:54:14.749Z,100969.06
2023-05-25T04:54:46.311Z,100962.88
2023-05-25T04:55:17.855Z,100972.56
2023-05-25T04:55:49.436Z,100963.75
2023-05-25T04:56:21.041Z,100964.69
2023-05-25T04:56:52.620Z,100967.34
2023-05-25T04:57:24.234Z,100965.53
2023-05-25T04:57:55.829Z,100966.50
2023-05-25T04:58:27.519Z,100965.53
2023-05-25T04:58:59.135Z,100963.63
2023-05-25T04:59:30.713Z,100966.28
2023-05-25T05:00:02.495Z,100973.50
2023-05-25T05:00:34.184Z,100962.88
2023-05-25T05:01:05.783Z,100961.09
2023-05-25T05:01:37.389Z,100969.91
2023-05-25T05:02:09.095Z,100979.69
2023-05-25T05:02:40.901Z,100977.13
2023-05-25T05:03:12.680Z,100976.16
2023-05-25T05:03:44.439Z,100974.25
2023-05-25T05:04:16.115Z,100981.38
2023-05-25T05:04:47.753Z,100976.91
2023-05-25T05:05:19.440Z,100979.47
2023-05-25T05:05:51.086Z,100975.88
2023-05-25T05:06:22.781Z,100985.63
2023-05-25T05:06:54.658Z,100980.34
2023-05-25T05:07:26.961Z,100980.34
2023-05-25T05:07:58.571Z,100980.34
2023-05-25T05:08:30.167Z,100985.63
2023-05-25T05:09:01.680Z,100982.13
2023-05-25T05:09:33.297Z,100985.63
2023-05-25T05:10:05.327Z,100986.47
2023-05-25T05:10:36.926Z,100987.31
2023-05-25T05:11:08.478Z,100990.84
2023-05-25T05:11:40.220Z,100991.78
2023-05-25T05:12:12.308Z,100988.19
2023-05-25T05:12:43.959Z,100986.38
2023-05-25T05:13:15.649Z,100981.09
2023-05-25T05:13:47.192Z,100983.84
2023-05-25T05:14:18.744Z,100991.59
2023-05-25T05:14:50.371Z,100987.22
2023-05-25T05:15:21.889Z,100995.19
2023-05-25T05:15:53.551Z,100987.31
2023-05-25T05:16:25.148Z,100991.78
2023-05-25T05:16:56.872Z,100989.13
2023-05-25T05:17:28.626Z,100991.69
2023-05-25T05:18:00.295Z,100997.84
2023-05-25T05:18:31.949Z,100995.09
2023-05-25T05:19:03.577Z,100998.72
2023-05-25T05:19:35.238Z,100996.06
2023-05-25T05:20:07.326Z,100997.75
2023-05-25T05:20:39.111Z,100999.47
2023-05-25T05:21:10.757Z,101002.31
2023-05-25T05:21:42.389Z,100992.63
2023-05-25T05:22:14.072Z,100990.84
2023-05-25T05:22:45.689Z,100997.94
2023-05-25T05:23:17.406Z,101000.50
2023-05-25T05:23:48.985Z,100995.19
2023-05-25T05:24:20.584Z,100991.69
2023-05-25T05:24:52.293Z,100993.41
2023-05-25T05:25:23.896Z,100993.59
2023-05-25T05:25:55.452Z,100994.34
2023-05-25T05:26:26.988Z,100989.97
2023-05-25T05:26:59.369Z,100994.44
2023-05-25T05:27:31.283Z,100991.59
2023-05-25T05:28:03.082Z,100992.44
2023-05-25T05:28:34.703Z,100992.53
2023-05-25T05:29:06.300Z,100993.41
2023-05-25T05:29:37.907Z,100996.06
2023-05-25T05:30:09.695Z,100999.47
2023-05-25T05:30:41.413Z,100995.09
2023-05-25T05:31:13.057Z,101003.06
2023-05-25T05:31:44.747Z,100994.25
2023-05-25T05:32:16.395Z,100999.66
2023-05-25T05:32:47.939Z,100997.00
2023-05-25T05:33:19.657Z,100998.91
2023-05-25T05:33:51.310Z,101002.41
2023-05-25T05:34:22.994Z,101001.56
2023-05-25T05:34:54.699Z,101003.25
2023-05-25T05:35:26.396Z,101003.16
2023-05-25T05:35:58.006Z,101008.38
2023-05-25T05:36:29.656Z,101010.09
2023-05-25T05:37:01.194Z,101013.66
2023-05-25T05:37:32.877Z,101009.25
2023-05-25T05:38:04.564Z,101015.38
2023-05-25T05:38:37.564Z,101007.44
2023-05-25T05:39:10.464Z,101012.66
2023-05-25T05:39:42.015Z,101009.16
2023-05-25T05:40:13.889Z,101010.09
2023-05-25T05:40:45.554Z,101012.75
2023-05-25T05:41:17.106Z,101016.22
2023-05-25T05:41:48.718Z,101008.38
2023-05-25T05:42:20.293Z,101010.09
2023-05-25T05:42:51.888Z,101014.53
2023-05-25T05:43:23.516Z,101012.84
2023-05-25T05:43:55.270Z,101009.25
2023-05-25T05:44:29.050Z,101011.03
2023-05-25T05:45:01.127Z,101014.53
2023-05-25T05:45:32.979Z,101014.47
2023-05-25T05:46:04.671Z,101019.75
2023-05-25T05:46:36.342Z,101021.44
2023-05-25T05:47:08.008Z,101018.78
2023-05-25T05:47:39.592Z,101022.28
2023-05-25T05:48:11.192Z,101020.50
2023-05-25T05:48:42.810Z,101022.19
2023-05-25T05:49:14.390Z,101022.19
2023-05-25T05:49:46.046Z,101022.19
2023-05-25T05:50:17.658Z,101024.75
2023-05-25T05:50:49.456Z,101022.09
2023-05-25T05:51:21.161Z,101034.44
2023-05-25T05:51:52.766Z,101028.38
2023-05-25T05:52:24.477Z,101028.38
2023-05-25T05:52:56.122Z,101029.22
2023-05-25T05:53:27.730Z,101037.19
2023-05-25T05:53:59.449Z,101038.13
2023-05-25T05:54:31.030Z,101030.94
2023-05-25T05:55:02.699Z,101025.72
2023-05-25T05:55:34.332Z,101040.78
2023-05-25T05:56:06.159Z,101035.38
2023-05-25T05:56:37.801Z,101038.13
2023-05-25T05:57:09.413Z,101033.69
2023-05-25T05:57:40.983Z,101031.97
2023-05-25T05:58:12.640Z,101035.38
2023-05-25T05:58:44.190Z,101037.94
2023-05-25T05:59:15.913Z,101040.59
2023-05-25T05:59:47.599Z,101040.59
2023-05-25T06:00:22.234Z,101043.25
2023-05-25T06:00:54.056Z,101038.91
2023-05-25T06:01:25.608Z,101038.81
2023-05-25T06:01:57.281Z,101037.94
2023-05-25T06:02:29.067Z,101039.66
2023-05-25T06:03:01.207Z,101039.66
2023-05-25T06:03:33.062Z,101043.25
2023-05-25T06:04:07.670Z,101035.38
2023-05-25T06:04:40.148Z,101041.56
2023-05-25T06:05:11.816Z,101043.25
2023-05-25T06:05:43.635Z,101041.47
2023-05-25T06:06:15.519Z,101041.47